Nrp Polar — CTEJ — position and weather

sailwx.info

Track history (hours):
 
Tides and Currents Weather Stations Pressure Air Temp Water Temp Dewpoint Dewpoint Depression Visibility Wind Speed Wind Dir Waves Ship Positions

Nrp Polar

Last reported at 2017-Sep-09 05:50 UTC. Time now 2017-Sep-24 09:01 UTC.
Position N 29°32' W 016°34'.
Warning: this ship's position is 15 days out of date.

Length 17 m; draft 3 m.

Type: Sailing vessel. MMSI: 263142000.

Date/timePositionNaut miles runAvg speedWind from/ knotsBaromVisibWave heightAir tempDewpointWater temp
2017-Sep-09 05:50N 29°32' W 016°34'39 5.4
2017-Sep-08 22:40N 28°59' W 016°10'2 5.0
2017-Sep-08 22:21N 28°58' W 016°09'6 5.0
2017-Sep-08 21:11N 28°53' W 016°05'1 5.0
2017-Sep-08 21:00N 28°52' W 016°04'3 5.2
2017-Sep-08 20:25N 28°50' W 016°02'20 5.1
2017-Sep-08 16:33N 28°35' W 015°47'2 5.2
2017-Sep-08 16:09N 28°34' W 015°46'1 4.1
2017-Sep-08 15:48N 28°33' W 015°45'5 4.9
2017-Sep-08 14:44N 28°29' W 015°41'2 5.5
2017-Sep-08 14:22N 28°27' W 015°39'2 6.1
2017-Sep-08 13:59N 28°25' W 015°38'3 6.4
2017-Sep-08 13:30N 28°23' W 015°35'3 6.4
2017-Sep-08 13:00N 28°21' W 015°33'3 6.3
2017-Sep-08 12:30N 28°19' W 015°30'3 6.4
2017-Sep-08 12:00N 28°16' W 015°27'3 6.5
2017-Sep-08 11:31N 28°14' W 015°25'3 5.7
2017-Sep-08 11:00N 28°12' W 015°23'2 4.8
2017-Sep-08 10:31N 28°09' W 015°22'2 4.9
2017-Sep-08 10:01N 28°08' W 015°24'2 3.0
2017-Sep-08 09:31N 28°08' W 015°26'0 0.1
2017-Sep-08 09:00N 28°08' W 015°25'0 0.0
2017-Sep-08 08:30N 28°08' W 015°25'0 0.0
2017-Sep-08 08:00N 28°08' W 015°25'0 0.0
2017-Sep-08 07:30N 28°08' W 015°25'0 0.0
2017-Sep-08 07:00N 28°08' W 015°25'  
2017-Sep-02 23:04N 28°08' W 015°25'0 0.0
2017-Sep-02 23:00N 28°08' W 015°25'0 0.0
2017-Sep-02 22:30N 28°08' W 015°25'0 0.1
2017-Sep-02 22:01N 28°08' W 015°26'0 0.0
2017-Sep-02 21:30N 28°08' W 015°26'0 0.0
2017-Sep-02 21:01N 28°08' W 015°26'1 2.1
2017-Sep-02 20:31N 28°07' W 015°25'1 2.5
2017-Sep-02 20:01N 28°06' W 015°24'2 4.0
2017-Sep-02 19:30N 28°05' W 015°22'2 4.7
2017-Sep-02 19:00N 28°07' W 015°20'3 6.4
2017-Sep-02 18:30N 28°09' W 015°17'3 6.8
2017-Sep-02 18:00N 28°11' W 015°14'3 6.9
2017-Sep-02 17:30N 28°13' W 015°11'3 6.9
2017-Sep-02 17:00N 28°15' W 015°08'3 6.9
2017-Sep-02 16:30N 28°17' W 015°04'4 7.0
2017-Sep-02 16:00N 28°19' W 015°01'3 7.1
2017-Sep-02 15:30N 28°21' W 014°58'3 6.9
2017-Sep-02 15:00N 28°23' W 014°55'3 6.6
2017-Sep-02 14:30N 28°25' W 014°52'3 6.5
2017-Sep-02 14:00N 28°27' W 014°49'3 6.5
2017-Sep-02 13:29N 28°29' W 014°46'  
Track history (hours):
 
Tides and Currents Weather Stations Pressure Air Temp Water Temp Dewpoint Dewpoint Depression Visibility Wind Speed Wind Dir Waves Ship Positions

Nrp Polar

Last reported at 2017-Sep-09 05:50 UTC. Time now 2017-Sep-24 09:01 UTC.
Position N 29°32' W 016°34'.
Warning: this ship's position is 15 days out of date.

Length 17 m; draft 3 m.

Type: Sailing vessel. MMSI: 263142000.

Date/timePositionNaut miles runAvg speedWind from/ knotsBaromVisibWave heightAir tempDewpointWater temp
2017-Sep-09 05:50N 29°32' W 016°34'39 5.4
2017-Sep-08 22:40N 28°59' W 016°10'2 5.0
2017-Sep-08 22:21N 28°58' W 016°09'6 5.0
2017-Sep-08 21:11N 28°53' W 016°05'1 5.0
2017-Sep-08 21:00N 28°52' W 016°04'3 5.2
2017-Sep-08 20:25N 28°50' W 016°02'20 5.1
2017-Sep-08 16:33N 28°35' W 015°47'2 5.2
2017-Sep-08 16:09N 28°34' W 015°46'1 4.1
2017-Sep-08 15:48N 28°33' W 015°45'5 4.9
2017-Sep-08 14:44N 28°29' W 015°41'2 5.5
2017-Sep-08 14:22N 28°27' W 015°39'2 6.1
2017-Sep-08 13:59N 28°25' W 015°38'3 6.4
2017-Sep-08 13:30N 28°23' W 015°35'3 6.4
2017-Sep-08 13:00N 28°21' W 015°33'3 6.3
2017-Sep-08 12:30N 28°19' W 015°30'3 6.4
2017-Sep-08 12:00N 28°16' W 015°27'3 6.5
2017-Sep-08 11:31N 28°14' W 015°25'3 5.7
2017-Sep-08 11:00N 28°12' W 015°23'2 4.8
2017-Sep-08 10:31N 28°09' W 015°22'2 4.9
2017-Sep-08 10:01N 28°08' W 015°24'2 3.0
2017-Sep-08 09:31N 28°08' W 015°26'0 0.1
2017-Sep-08 09:00N 28°08' W 015°25'0 0.0
2017-Sep-08 08:30N 28°08' W 015°25'0 0.0
2017-Sep-08 08:00N 28°08' W 015°25'0 0.0
2017-Sep-08 07:30N 28°08' W 015°25'0 0.0
2017-Sep-08 07:00N 28°08' W 015°25'  
2017-Sep-02 23:04N 28°08' W 015°25'0 0.0
2017-Sep-02 23:00N 28°08' W 015°25'0 0.0
2017-Sep-02 22:30N 28°08' W 015°25'0 0.1
2017-Sep-02 22:01N 28°08' W 015°26'0 0.0
2017-Sep-02 21:30N 28°08' W 015°26'0 0.0
2017-Sep-02 21:01N 28°08' W 015°26'1 2.1
2017-Sep-02 20:31N 28°07' W 015°25'1 2.5
2017-Sep-02 20:01N 28°06' W 015°24'2 4.0
2017-Sep-02 19:30N 28°05' W 015°22'2 4.7
2017-Sep-02 19:00N 28°07' W 015°20'3 6.4
2017-Sep-02 18:30N 28°09' W 015°17'3 6.8
2017-Sep-02 18:00N 28°11' W 015°14'3 6.9
2017-Sep-02 17:30N 28°13' W 015°11'3 6.9
2017-Sep-02 17:00N 28°15' W 015°08'3 6.9
2017-Sep-02 16:30N 28°17' W 015°04'4 7.0
2017-Sep-02 16:00N 28°19' W 015°01'3 7.1
2017-Sep-02 15:30N 28°21' W 014°58'3 6.9
2017-Sep-02 15:00N 28°23' W 014°55'3 6.6
2017-Sep-02 14:30N 28°25' W 014°52'3 6.5
2017-Sep-02 14:00N 28°27' W 014°49'3 6.5
2017-Sep-02 13:29N 28°29' W 014°46'  

Dump ship's entire track history